sensor_id;sensor_type;location;lat;lon;timestamp;P1;durP1;ratioP1;P2;durP2;ratioP2
19923;SDS011;10124;53.068;18.224;2023-05-09T00:00:37;16.63;;;11.23;;
19923;SDS011;10124;53.068;18.224;2023-05-09T00:03:12;17.20;;;11.23;;
19923;SDS011;10124;53.068;18.224;2023-05-09T00:05:40;17.37;;;12.67;;
19923;SDS011;10124;53.068;18.224;2023-05-09T00:08:08;18.00;;;12.67;;
19923;SDS011;10124;53.068;18.224;2023-05-09T00:10:35;21.57;;;13.03;;
19923;SDS011;10124;53.068;18.224;2023-05-09T00:13:03;18.83;;;12.40;;
19923;SDS011;10124;53.068;18.224;2023-05-09T00:15:31;17.57;;;12.33;;
19923;SDS011;10124;53.068;18.224;2023-05-09T00:17:59;17.30;;;11.17;;
19923;SDS011;10124;53.068;18.224;2023-05-09T00:20:27;18.00;;;12.53;;
19923;SDS011;10124;53.068;18.224;2023-05-09T00:22:55;16.93;;;12.47;;
19923;SDS011;10124;53.068;18.224;2023-05-09T00:25:22;20.07;;;12.90;;
19923;SDS011;10124;53.068;18.224;2023-05-09T00:27:50;18.40;;;12.90;;
19923;SDS011;10124;53.068;18.224;2023-05-09T00:30:17;21.30;;;14.33;;
19923;SDS011;10124;53.068;18.224;2023-05-09T00:32:45;19.50;;;14.63;;
19923;SDS011;10124;53.068;18.224;2023-05-09T00:35:13;22.20;;;15.23;;
19923;SDS011;10124;53.068;18.224;2023-05-09T00:37:41;19.47;;;14.40;;
19923;SDS011;10124;53.068;18.224;2023-05-09T00:40:09;21.97;;;14.40;;
19923;SDS011;10124;53.068;18.224;2023-05-09T00:42:37;25.97;;;16.57;;
19923;SDS011;10124;53.068;18.224;2023-05-09T00:45:05;30.47;;;17.80;;
19923;SDS011;10124;53.068;18.224;2023-05-09T00:47:33;39.27;;;19.50;;
19923;SDS011;10124;53.068;18.224;2023-05-09T00:50:02;30.30;;;18.00;;
19923;SDS011;10124;53.068;18.224;2023-05-09T00:52:30;31.07;;;17.70;;
19923;SDS011;10124;53.068;18.224;2023-05-09T00:54:59;28.97;;;17.93;;
19923;SDS011;10124;53.068;18.224;2023-05-09T00:57:28;33.70;;;18.57;;
19923;SDS011;10124;53.068;18.224;2023-05-09T00:59:56;29.23;;;19.63;;
19923;SDS011;10124;53.068;18.224;2023-05-09T01:02:23;26.47;;;17.73;;
19923;SDS011;10124;53.068;18.224;2023-05-09T01:04:51;25.13;;;18.03;;
19923;SDS011;10124;53.068;18.224;2023-05-09T01:12:46;23.93;;;16.53;;
19923;SDS011;10124;53.068;18.224;2023-05-09T01:15:36;22.40;;;16.93;;
19923;SDS011;10124;53.068;18.224;2023-05-09T01:20:42;23.37;;;15.73;;
19923;SDS011;10124;53.068;18.224;2023-05-09T01:29:11;21.63;;;16.63;;
19923;SDS011;10124;53.068;18.224;2023-05-09T01:32:06;21.77;;;16.17;;
19923;SDS011;10124;53.068;18.224;2023-05-09T01:34:37;22.07;;;16.87;;
19923;SDS011;10124;53.068;18.224;2023-05-09T01:37:06;23.20;;;16.23;;
19923;SDS011;10124;53.068;18.224;2023-05-09T01:39:36;22.60;;;16.97;;
19923;SDS011;10124;53.068;18.224;2023-05-09T01:42:06;28.37;;;17.50;;
19923;SDS011;10124;53.068;18.224;2023-05-09T01:44:38;25.60;;;17.67;;
19923;SDS011;10124;53.068;18.224;2023-05-09T01:47:08;25.43;;;17.13;;
19923;SDS011;10124;53.068;18.224;2023-05-09T01:49:36;25.20;;;17.47;;
19923;SDS011;10124;53.068;18.224;2023-05-09T01:52:12;27.30;;;19.43;;
19923;SDS011;10124;53.068;18.224;2023-05-09T01:54:43;26.50;;;19.27;;
19923;SDS011;10124;53.068;18.224;2023-05-09T01:57:11;24.97;;;17.30;;
19923;SDS011;10124;53.068;18.224;2023-05-09T01:59:41;28.57;;;18.93;;
19923;SDS011;10124;53.068;18.224;2023-05-09T02:02:10;27.60;;;18.57;;
19923;SDS011;10124;53.068;18.224;2023-05-09T02:04:39;25.57;;;18.60;;
19923;SDS011;10124;53.068;18.224;2023-05-09T02:07:09;25.27;;;17.40;;
19923;SDS011;10124;53.068;18.224;2023-05-09T02:09:37;26.80;;;19.67;;
19923;SDS011;10124;53.068;18.224;2023-05-09T02:12:05;28.43;;;18.17;;
19923;SDS011;10124;53.068;18.224;2023-05-09T02:14:33;29.00;;;19.40;;
19923;SDS011;10124;53.068;18.224;2023-05-09T02:17:01;27.10;;;18.13;;
19923;SDS011;10124;53.068;18.224;2023-05-09T02:19:33;26.43;;;18.83;;
19923;SDS011;10124;53.068;18.224;2023-05-09T02:22:01;26.57;;;18.40;;
19923;SDS011;10124;53.068;18.224;2023-05-09T02:24:31;25.47;;;17.30;;
19923;SDS011;10124;53.068;18.224;2023-05-09T02:27:00;26.97;;;18.63;;
19923;SDS011;10124;53.068;18.224;2023-05-09T02:29:34;24.40;;;17.67;;
19923;SDS011;10124;53.068;18.224;2023-05-09T02:32:08;28.60;;;17.80;;
19923;SDS011;10124;53.068;18.224;2023-05-09T02:34:39;26.10;;;16.73;;
19923;SDS011;10124;53.068;18.224;2023-05-09T02:37:08;27.03;;;17.67;;
19923;SDS011;10124;53.068;18.224;2023-05-09T02:39:36;25.80;;;18.20;;
19923;SDS011;10124;53.068;18.224;2023-05-09T02:42:05;23.73;;;18.33;;
19923;SDS011;10124;53.068;18.224;2023-05-09T02:44:34;24.23;;;17.57;;
19923;SDS011;10124;53.068;18.224;2023-05-09T02:47:02;28.90;;;18.50;;
19923;SDS011;10124;53.068;18.224;2023-05-09T02:49:30;25.10;;;18.27;;
19923;SDS011;10124;53.068;18.224;2023-05-09T02:52:00;26.73;;;17.77;;
19923;SDS011;10124;53.068;18.224;2023-05-09T02:54:28;24.80;;;18.53;;
19923;SDS011;10124;53.068;18.224;2023-05-09T02:56:55;23.47;;;17.90;;
19923;SDS011;10124;53.068;18.224;2023-05-09T02:59:23;28.93;;;18.13;;
19923;SDS011;10124;53.068;18.224;2023-05-09T03:01:51;29.17;;;19.00;;
19923;SDS011;10124;53.068;18.224;2023-05-09T03:04:20;29.47;;;18.43;;
19923;SDS011;10124;53.068;18.224;2023-05-09T03:06:49;24.37;;;18.87;;
19923;SDS011;10124;53.068;18.224;2023-05-09T03:09:17;30.37;;;18.30;;
19923;SDS011;10124;53.068;18.224;2023-05-09T03:11:44;31.07;;;17.80;;
19923;SDS011;10124;53.068;18.224;2023-05-09T03:14:11;29.07;;;18.90;;
19923;SDS011;10124;53.068;18.224;2023-05-09T03:16:40;24.67;;;18.20;;
19923;SDS011;10124;53.068;18.224;2023-05-09T03:19:17;26.07;;;18.30;;
19923;SDS011;10124;53.068;18.224;2023-05-09T03:21:45;23.57;;;18.17;;
19923;SDS011;10124;53.068;18.224;2023-05-09T03:24:14;28.80;;;18.97;;
19923;SDS011;10124;53.068;18.224;2023-05-09T03:26:42;24.87;;;17.83;;
19923;SDS011;10124;53.068;18.224;2023-05-09T03:29:10;36.03;;;19.50;;
19923;SDS011;10124;53.068;18.224;2023-05-09T03:31:38;37.43;;;19.37;;
19923;SDS011;10124;53.068;18.224;2023-05-09T03:34:06;27.10;;;17.57;;
19923;SDS011;10124;53.068;18.224;2023-05-09T03:36:42;26.83;;;18.57;;
19923;SDS011;10124;53.068;18.224;2023-05-09T03:39:12;29.20;;;17.37;;
19923;SDS011;10124;53.068;18.224;2023-05-09T03:41:42;26.60;;;19.07;;
19923;SDS011;10124;53.068;18.224;2023-05-09T03:44:11;24.83;;;18.43;;
19923;SDS011;10124;53.068;18.224;2023-05-09T03:46:38;23.83;;;17.63;;
19923;SDS011;10124;53.068;18.224;2023-05-09T03:49:07;24.50;;;18.67;;
19923;SDS011;10124;53.068;18.224;2023-05-09T03:51:35;25.27;;;17.33;;
19923;SDS011;10124;53.068;18.224;2023-05-09T03:54:08;26.27;;;18.80;;
19923;SDS011;10124;53.068;18.224;2023-05-09T03:56:36;30.10;;;19.37;;
19923;SDS011;10124;53.068;18.224;2023-05-09T03:59:04;28.37;;;19.90;;
19923;SDS011;10124;53.068;18.224;2023-05-09T04:01:33;25.73;;;19.57;;
19923;SDS011;10124;53.068;18.224;2023-05-09T04:04:03;29.27;;;19.73;;
19923;SDS011;10124;53.068;18.224;2023-05-09T04:06:34;28.67;;;19.03;;
19923;SDS011;10124;53.068;18.224;2023-05-09T04:09:04;23.70;;;18.50;;
19923;SDS011;10124;53.068;18.224;2023-05-09T04:11:33;25.53;;;18.37;;
19923;SDS011;10124;53.068;18.224;2023-05-09T04:14:02;26.77;;;19.00;;
19923;SDS011;10124;53.068;18.224;2023-05-09T04:16:34;27.20;;;19.33;;
19923;SDS011;10124;53.068;18.224;2023-05-09T04:19:02;26.80;;;19.70;;
19923;SDS011;10124;53.068;18.224;2023-05-09T04:21:30;26.00;;;19.13;;
19923;SDS011;10124;53.068;18.224;2023-05-09T04:24:00;27.90;;;18.90;;
19923;SDS011;10124;53.068;18.224;2023-05-09T04:26:34;27.20;;;19.73;;
19923;SDS011;10124;53.068;18.224;2023-05-09T04:29:07;23.67;;;17.63;;
19923;SDS011;10124;53.068;18.224;2023-05-09T04:31:35;26.03;;;18.97;;
19923;SDS011;10124;53.068;18.224;2023-05-09T04:34:05;25.27;;;19.47;;
19923;SDS011;10124;53.068;18.224;2023-05-09T04:36:36;27.33;;;21.77;;
19923;SDS011;10124;53.068;18.224;2023-05-09T04:39:04;30.37;;;21.83;;
19923;SDS011;10124;53.068;18.224;2023-05-09T04:41:34;29.57;;;24.13;;
19923;SDS011;10124;53.068;18.224;2023-05-09T04:44:03;30.23;;;24.87;;
19923;SDS011;10124;53.068;18.224;2023-05-09T04:46:30;29.70;;;21.97;;
19923;SDS011;10124;53.068;18.224;2023-05-09T04:48:59;32.43;;;24.10;;
19923;SDS011;10124;53.068;18.224;2023-05-09T04:51:26;27.90;;;22.30;;
19923;SDS011;10124;53.068;18.224;2023-05-09T04:53:54;33.90;;;24.73;;
19923;SDS011;10124;53.068;18.224;2023-05-09T04:56:28;32.63;;;24.73;;
19923;SDS011;10124;53.068;18.224;2023-05-09T04:58:56;30.87;;;23.47;;
19923;SDS011;10124;53.068;18.224;2023-05-09T05:01:23;40.70;;;26.00;;
19923;SDS011;10124;53.068;18.224;2023-05-09T05:03:53;31.57;;;23.33;;
19923;SDS011;10124;53.068;18.224;2023-05-09T05:06:21;30.00;;;22.53;;
19923;SDS011;10124;53.068;18.224;2023-05-09T05:08:49;31.80;;;21.97;;
19923;SDS011;10124;53.068;18.224;2023-05-09T05:11:17;34.87;;;21.87;;
19923;SDS011;10124;53.068;18.224;2023-05-09T05:13:47;31.83;;;21.77;;
19923;SDS011;10124;53.068;18.224;2023-05-09T05:16:15;35.33;;;23.57;;
19923;SDS011;10124;53.068;18.224;2023-05-09T05:18:43;35.13;;;25.23;;
19923;SDS011;10124;53.068;18.224;2023-05-09T05:21:12;39.40;;;23.30;;
19923;SDS011;10124;53.068;18.224;2023-05-09T05:23:43;33.10;;;21.97;;
19923;SDS011;10124;53.068;18.224;2023-05-09T05:26:12;32.17;;;21.20;;
19923;SDS011;10124;53.068;18.224;2023-05-09T05:28:39;39.07;;;23.30;;
19923;SDS011;10124;53.068;18.224;2023-05-09T05:31:07;37.90;;;23.27;;
19923;SDS011;10124;53.068;18.224;2023-05-09T05:33:35;33.63;;;22.27;;
19923;SDS011;10124;53.068;18.224;2023-05-09T05:36:03;34.50;;;21.93;;
19923;SDS011;10124;53.068;18.224;2023-05-09T05:38:31;37.43;;;21.53;;
19923;SDS011;10124;53.068;18.224;2023-05-09T05:40:59;29.40;;;20.17;;
19923;SDS011;10124;53.068;18.224;2023-05-09T05:43:29;29.77;;;19.00;;
19923;SDS011;10124;53.068;18.224;2023-05-09T05:45:56;25.37;;;18.43;;
19923;SDS011;10124;53.068;18.224;2023-05-09T05:48:26;29.50;;;18.47;;
19923;SDS011;10124;53.068;18.224;2023-05-09T05:50:54;25.03;;;17.57;;
19923;SDS011;10124;53.068;18.224;2023-05-09T05:53:26;25.10;;;16.43;;
19923;SDS011;10124;53.068;18.224;2023-05-09T05:55:56;30.93;;;17.30;;
19923;SDS011;10124;53.068;18.224;2023-05-09T05:58:24;26.37;;;16.03;;
19923;SDS011;10124;53.068;18.224;2023-05-09T06:00:52;21.80;;;14.13;;
19923;SDS011;10124;53.068;18.224;2023-05-09T06:03:20;22.13;;;14.00;;
19923;SDS011;10124;53.068;18.224;2023-05-09T06:05:55;21.60;;;14.43;;
19923;SDS011;10124;53.068;18.224;2023-05-09T06:08:23;21.87;;;14.57;;
19923;SDS011;10124;53.068;18.224;2023-05-09T06:10:51;19.90;;;12.33;;
19923;SDS011;10124;53.068;18.224;2023-05-09T06:13:19;19.70;;;12.73;;
19923;SDS011;10124;53.068;18.224;2023-05-09T06:15:53;16.30;;;10.77;;
19923;SDS011;10124;53.068;18.224;2023-05-09T06:18:34;22.03;;;11.27;;
19923;SDS011;10124;53.068;18.224;2023-05-09T06:21:03;20.70;;;9.67;;
19923;SDS011;10124;53.068;18.224;2023-05-09T06:23:30;22.50;;;9.20;;
19923;SDS011;10124;53.068;18.224;2023-05-09T06:25:58;14.33;;;9.17;;
19923;SDS011;10124;53.068;18.224;2023-05-09T06:28:26;12.37;;;7.57;;
19923;SDS011;10124;53.068;18.224;2023-05-09T06:30:53;16.30;;;7.03;;
19923;SDS011;10124;53.068;18.224;2023-05-09T06:33:21;11.30;;;6.70;;
19923;SDS011;10124;53.068;18.224;2023-05-09T06:35:48;17.80;;;6.88;;
19923;SDS011;10124;53.068;18.224;2023-05-09T06:38:16;10.82;;;6.53;;
19923;SDS011;10124;53.068;18.224;2023-05-09T06:40:43;14.38;;;6.60;;
19923;SDS011;10124;53.068;18.224;2023-05-09T06:43:10;10.52;;;5.90;;
19923;SDS011;10124;53.068;18.224;2023-05-09T06:45:38;10.43;;;5.40;;
19923;SDS011;10124;53.068;18.224;2023-05-09T06:48:05;9.77;;;6.30;;
19923;SDS011;10124;53.068;18.224;2023-05-09T06:50:32;22.95;;;7.32;;
19923;SDS011;10124;53.068;18.224;2023-05-09T06:53:00;9.05;;;5.80;;
19923;SDS011;10124;53.068;18.224;2023-05-09T06:55:28;10.00;;;5.78;;
19923;SDS011;10124;53.068;18.224;2023-05-09T06:57:55;11.73;;;6.47;;
19923;SDS011;10124;53.068;18.224;2023-05-09T07:00:23;8.63;;;6.57;;
19923;SDS011;10124;53.068;18.224;2023-05-09T07:02:50;9.25;;;6.03;;
19923;SDS011;10124;53.068;18.224;2023-05-09T07:05:18;9.90;;;5.70;;
19923;SDS011;10124;53.068;18.224;2023-05-09T07:07:45;6.40;;;3.97;;
19923;SDS011;10124;53.068;18.224;2023-05-09T07:10:13;21.75;;;4.68;;
19923;SDS011;10124;53.068;18.224;2023-05-09T07:12:40;7.60;;;3.65;;
19923;SDS011;10124;53.068;18.224;2023-05-09T07:15:08;8.68;;;4.22;;
19923;SDS011;10124;53.068;18.224;2023-05-09T07:17:36;4.93;;;3.58;;
19923;SDS011;10124;53.068;18.224;2023-05-09T07:20:03;3.67;;;2.90;;
19923;SDS011;10124;53.068;18.224;2023-05-09T07:22:32;4.82;;;2.78;;
19923;SDS011;10124;53.068;18.224;2023-05-09T07:25:04;5.32;;;2.97;;
19923;SDS011;10124;53.068;18.224;2023-05-09T07:27:33;10.25;;;2.65;;
19923;SDS011;10124;53.068;18.224;2023-05-09T07:30:04;3.67;;;2.25;;
19923;SDS011;10124;53.068;18.224;2023-05-09T07:32:33;15.30;;;3.38;;
19923;SDS011;10124;53.068;18.224;2023-05-09T07:35:01;35.42;;;4.30;;
19923;SDS011;10124;53.068;18.224;2023-05-09T07:37:29;14.10;;;2.65;;
19923;SDS011;10124;53.068;18.224;2023-05-09T07:39:58;7.55;;;2.00;;
19923;SDS011;10124;53.068;18.224;2023-05-09T07:42:26;3.53;;;2.13;;
19923;SDS011;10124;53.068;18.224;2023-05-09T07:44:55;11.75;;;2.47;;
19923;SDS011;10124;53.068;18.224;2023-05-09T07:47:22;5.45;;;2.15;;
19923;SDS011;10124;53.068;18.224;2023-05-09T07:49:50;9.88;;;2.60;;
19923;SDS011;10124;53.068;18.224;2023-05-09T07:52:18;10.93;;;2.63;;
19923;SDS011;10124;53.068;18.224;2023-05-09T07:54:45;9.10;;;2.33;;
19923;SDS011;10124;53.068;18.224;2023-05-09T07:57:13;7.28;;;2.33;;
19923;SDS011;10124;53.068;18.224;2023-05-09T07:59:40;5.20;;;2.00;;
19923;SDS011;10124;53.068;18.224;2023-05-09T08:02:08;8.98;;;2.00;;
19923;SDS011;10124;53.068;18.224;2023-05-09T08:04:36;5.53;;;2.13;;
19923;SDS011;10124;53.068;18.224;2023-05-09T08:07:04;16.15;;;3.42;;
19923;SDS011;10124;53.068;18.224;2023-05-09T08:09:32;8.43;;;2.38;;
19923;SDS011;10124;53.068;18.224;2023-05-09T08:12:00;4.28;;;2.70;;
19923;SDS011;10124;53.068;18.224;2023-05-09T08:14:28;4.43;;;2.35;;
19923;SDS011;10124;53.068;18.224;2023-05-09T08:16:56;18.55;;;3.30;;
19923;SDS011;10124;53.068;18.224;2023-05-09T08:19:24;3.80;;;2.35;;
19923;SDS011;10124;53.068;18.224;2023-05-09T08:21:52;4.90;;;2.10;;
19923;SDS011;10124;53.068;18.224;2023-05-09T08:24:20;5.47;;;2.50;;
19923;SDS011;10124;53.068;18.224;2023-05-09T08:26:47;31.60;;;4.22;;
19923;SDS011;10124;53.068;18.224;2023-05-09T08:29:15;3.28;;;2.35;;
19923;SDS011;10124;53.068;18.224;2023-05-09T08:31:43;5.07;;;2.45;;
19923;SDS011;10124;53.068;18.224;2023-05-09T08:34:11;8.60;;;2.40;;
19923;SDS011;10124;53.068;18.224;2023-05-09T08:36:39;3.33;;;1.90;;
19923;SDS011;10124;53.068;18.224;2023-05-09T08:39:07;5.60;;;1.90;;
19923;SDS011;10124;53.068;18.224;2023-05-09T08:41:35;5.95;;;1.88;;
19923;SDS011;10124;53.068;18.224;2023-05-09T08:44:04;7.97;;;2.60;;
19923;SDS011;10124;53.068;18.224;2023-05-09T08:46:35;7.25;;;2.00;;
19923;SDS011;10124;53.068;18.224;2023-05-09T08:49:05;6.70;;;2.05;;
19923;SDS011;10124;53.068;18.224;2023-05-09T08:51:36;7.90;;;1.90;;
19923;SDS011;10124;53.068;18.224;2023-05-09T08:54:03;7.70;;;2.60;;
19923;SDS011;10124;53.068;18.224;2023-05-09T08:56:31;5.15;;;2.08;;
19923;SDS011;10124;53.068;18.224;2023-05-09T08:59:01;8.55;;;2.03;;
19923;SDS011;10124;53.068;18.224;2023-05-09T09:01:29;4.00;;;1.95;;
19923;SDS011;10124;53.068;18.224;2023-05-09T09:03:59;14.65;;;2.88;;
19923;SDS011;10124;53.068;18.224;2023-05-09T09:06:27;7.50;;;1.88;;
19923;SDS011;10124;53.068;18.224;2023-05-09T09:08:56;4.03;;;1.65;;
19923;SDS011;10124;53.068;18.224;2023-05-09T09:11:24;10.13;;;2.35;;
19923;SDS011;10124;53.068;18.224;2023-05-09T09:13:54;4.15;;;2.08;;
19923;SDS011;10124;53.068;18.224;2023-05-09T09:16:24;6.80;;;2.10;;
19923;SDS011;10124;53.068;18.224;2023-05-09T09:18:54;9.90;;;2.13;;
19923;SDS011;10124;53.068;18.224;2023-05-09T09:21:24;7.68;;;1.80;;
19923;SDS011;10124;53.068;18.224;2023-05-09T09:23:54;9.57;;;2.00;;
19923;SDS011;10124;53.068;18.224;2023-05-09T09:26:22;5.22;;;2.33;;
19923;SDS011;10124;53.068;18.224;2023-05-09T09:28:50;10.30;;;3.13;;
19923;SDS011;10124;53.068;18.224;2023-05-09T09:33:48;5.00;;;2.30;;
19923;SDS011;10124;53.068;18.224;2023-05-09T09:36:24;5.90;;;2.30;;
19923;SDS011;10124;53.068;18.224;2023-05-09T09:39:00;5.57;;;2.03;;
19923;SDS011;10124;53.068;18.224;2023-05-09T09:41:37;40.58;;;4.05;;
19923;SDS011;10124;53.068;18.224;2023-05-09T09:47:02;3.55;;;1.90;;
19923;SDS011;10124;53.068;18.224;2023-05-09T09:49:29;7.45;;;2.22;;
19923;SDS011;10124;53.068;18.224;2023-05-09T09:51:57;57.83;;;5.22;;
19923;SDS011;10124;53.068;18.224;2023-05-09T09:54:25;3.65;;;2.28;;
19923;SDS011;10124;53.068;18.224;2023-05-09T09:56:54;4.80;;;1.90;;
19923;SDS011;10124;53.068;18.224;2023-05-09T09:59:23;12.82;;;2.60;;
19923;SDS011;10124;53.068;18.224;2023-05-09T10:02:01;2.85;;;1.83;;
19923;SDS011;10124;53.068;18.224;2023-05-09T10:04:35;6.10;;;2.50;;
19923;SDS011;10124;53.068;18.224;2023-05-09T10:07:04;24.75;;;3.50;;
19923;SDS011;10124;53.068;18.224;2023-05-09T10:09:33;14.32;;;2.65;;
19923;SDS011;10124;53.068;18.224;2023-05-09T10:12:04;23.60;;;2.63;;
19923;SDS011;10124;53.068;18.224;2023-05-09T10:14:33;8.90;;;2.30;;
19923;SDS011;10124;53.068;18.224;2023-05-09T10:17:03;46.08;;;5.10;;
19923;SDS011;10124;53.068;18.224;2023-05-09T10:19:31;9.05;;;2.10;;
19923;SDS011;10124;53.068;18.224;2023-05-09T10:22:01;8.57;;;2.45;;
19923;SDS011;10124;53.068;18.224;2023-05-09T10:24:46;7.28;;;2.33;;
19923;SDS011;10124;53.068;18.224;2023-05-09T10:27:24;4.80;;;2.28;;
19923;SDS011;10124;53.068;18.224;2023-05-09T10:30:43;10.35;;;2.63;;
19923;SDS011;10124;53.068;18.224;2023-05-09T10:35:40;6.03;;;2.45;;
19923;SDS011;10124;53.068;18.224;2023-05-09T10:38:12;4.82;;;1.83;;
19923;SDS011;10124;53.068;18.224;2023-05-09T10:40:40;6.15;;;2.28;;
19923;SDS011;10124;53.068;18.224;2023-05-09T10:43:07;7.50;;;2.53;;
19923;SDS011;10124;53.068;18.224;2023-05-09T10:45:35;3.35;;;2.17;;
19923;SDS011;10124;53.068;18.224;2023-05-09T10:48:03;16.45;;;2.78;;
19923;SDS011;10124;53.068;18.224;2023-05-09T10:50:33;3.10;;;2.10;;
19923;SDS011;10124;53.068;18.224;2023-05-09T10:55:55;9.15;;;2.63;;
19923;SDS011;10124;53.068;18.224;2023-05-09T10:58:25;10.00;;;2.30;;
19923;SDS011;10124;53.068;18.224;2023-05-09T11:01:12;6.35;;;2.13;;
19923;SDS011;10124;53.068;18.224;2023-05-09T11:03:54;6.07;;;1.85;;
19923;SDS011;10124;53.068;18.224;2023-05-09T11:06:59;6.18;;;2.08;;
19923;SDS011;10124;53.068;18.224;2023-05-09T11:12:00;9.13;;;2.25;;
19923;SDS011;10124;53.068;18.224;2023-05-09T11:14:49;8.15;;;2.30;;
19923;SDS011;10124;53.068;18.224;2023-05-09T11:25:04;8.02;;;2.58;;
19923;SDS011;10124;53.068;18.224;2023-05-09T11:30:09;5.93;;;2.28;;
19923;SDS011;10124;53.068;18.224;2023-05-09T11:32:42;4.97;;;2.13;;
19923;SDS011;10124;53.068;18.224;2023-05-09T11:35:16;98.70;;;8.43;;
19923;SDS011;10124;53.068;18.224;2023-05-09T11:40:13;4.72;;;2.05;;
19923;SDS011;10124;53.068;18.224;2023-05-09T11:42:46;12.13;;;2.67;;
19923;SDS011;10124;53.068;18.224;2023-05-09T11:45:15;9.80;;;2.95;;
19923;SDS011;10124;53.068;18.224;2023-05-09T11:47:44;5.85;;;2.10;;
19923;SDS011;10124;53.068;18.224;2023-05-09T11:50:13;3.85;;;1.90;;
19923;SDS011;10124;53.068;18.224;2023-05-09T11:52:43;5.47;;;2.03;;
19923;SDS011;10124;53.068;18.224;2023-05-09T11:55:11;5.93;;;1.92;;
19923;SDS011;10124;53.068;18.224;2023-05-09T11:57:42;14.00;;;2.88;;
19923;SDS011;10124;53.068;18.224;2023-05-09T12:00:11;4.18;;;2.00;;
19923;SDS011;10124;53.068;18.224;2023-05-09T12:02:42;6.28;;;2.72;;
19923;SDS011;10124;53.068;18.224;2023-05-09T12:05:12;12.10;;;3.15;;
19923;SDS011;10124;53.068;18.224;2023-05-09T12:07:42;27.73;;;3.50;;
19923;SDS011;10124;53.068;18.224;2023-05-09T12:10:11;20.23;;;3.53;;
19923;SDS011;10124;53.068;18.224;2023-05-09T12:12:41;3.05;;;2.30;;
19923;SDS011;10124;53.068;18.224;2023-05-09T12:15:10;8.07;;;2.42;;
19923;SDS011;10124;53.068;18.224;2023-05-09T12:17:40;4.78;;;2.22;;
19923;SDS011;10124;53.068;18.224;2023-05-09T12:20:09;3.70;;;1.80;;
19923;SDS011;10124;53.068;18.224;2023-05-09T12:22:37;6.07;;;2.40;;
19923;SDS011;10124;53.068;18.224;2023-05-09T12:25:05;5.93;;;2.30;;
19923;SDS011;10124;53.068;18.224;2023-05-09T12:27:37;6.25;;;2.20;;
19923;SDS011;10124;53.068;18.224;2023-05-09T12:30:06;3.60;;;2.30;;
19923;SDS011;10124;53.068;18.224;2023-05-09T12:32:36;4.07;;;2.47;;
19923;SDS011;10124;53.068;18.224;2023-05-09T12:35:06;9.60;;;2.60;;
19923;SDS011;10124;53.068;18.224;2023-05-09T12:37:36;13.05;;;2.70;;
19923;SDS011;10124;53.068;18.224;2023-05-09T12:40:05;12.50;;;2.88;;
19923;SDS011;10124;53.068;18.224;2023-05-09T12:42:39;8.05;;;3.08;;
19923;SDS011;10124;53.068;18.224;2023-05-09T12:45:10;15.60;;;3.28;;
19923;SDS011;10124;53.068;18.224;2023-05-09T12:47:38;4.20;;;2.30;;
19923;SDS011;10124;53.068;18.224;2023-05-09T12:50:08;8.45;;;2.47;;
19923;SDS011;10124;53.068;18.224;2023-05-09T12:52:38;9.07;;;2.85;;
19923;SDS011;10124;53.068;18.224;2023-05-09T12:55:27;5.38;;;2.53;;
19923;SDS011;10124;53.068;18.224;2023-05-09T12:57:58;5.93;;;2.30;;
19923;SDS011;10124;53.068;18.224;2023-05-09T13:00:27;3.95;;;2.45;;
19923;SDS011;10124;53.068;18.224;2023-05-09T13:03:18;5.50;;;2.72;;
19923;SDS011;10124;53.068;18.224;2023-05-09T13:05:54;12.55;;;3.22;;
19923;SDS011;10124;53.068;18.224;2023-05-09T13:08:23;18.58;;;3.42;;
19923;SDS011;10124;53.068;18.224;2023-05-09T13:10:51;6.35;;;2.65;;
19923;SDS011;10124;53.068;18.224;2023-05-09T13:13:39;5.95;;;2.33;;
19923;SDS011;10124;53.068;18.224;2023-05-09T13:16:08;9.23;;;2.67;;
19923;SDS011;10124;53.068;18.224;2023-05-09T13:18:38;4.18;;;2.33;;
19923;SDS011;10124;53.068;18.224;2023-05-09T13:21:05;6.43;;;2.78;;
19923;SDS011;10124;53.068;18.224;2023-05-09T13:23:34;7.40;;;2.80;;
19923;SDS011;10124;53.068;18.224;2023-05-09T13:26:01;6.65;;;2.38;;
19923;SDS011;10124;53.068;18.224;2023-05-09T13:28:29;13.82;;;3.25;;
19923;SDS011;10124;53.068;18.224;2023-05-09T13:30:56;10.95;;;2.65;;
19923;SDS011;10124;53.068;18.224;2023-05-09T13:33:25;12.90;;;2.90;;
19923;SDS011;10124;53.068;18.224;2023-05-09T13:35:52;4.55;;;2.13;;
19923;SDS011;10124;53.068;18.224;2023-05-09T13:38:20;5.82;;;2.70;;
19923;SDS011;10124;53.068;18.224;2023-05-09T13:40:47;7.70;;;2.90;;
19923;SDS011;10124;53.068;18.224;2023-05-09T13:43:15;9.00;;;2.70;;
19923;SDS011;10124;53.068;18.224;2023-05-09T13:45:42;9.75;;;3.10;;
19923;SDS011;10124;53.068;18.224;2023-05-09T13:48:10;7.00;;;2.28;;
19923;SDS011;10124;53.068;18.224;2023-05-09T13:50:38;23.63;;;3.65;;
19923;SDS011;10124;53.068;18.224;2023-05-09T13:53:06;4.95;;;2.40;;
19923;SDS011;10124;53.068;18.224;2023-05-09T13:55:33;7.82;;;2.58;;
19923;SDS011;10124;53.068;18.224;2023-05-09T13:58:01;5.82;;;2.22;;
19923;SDS011;10124;53.068;18.224;2023-05-09T14:00:28;15.95;;;3.85;;
19923;SDS011;10124;53.068;18.224;2023-05-09T14:02:57;5.10;;;3.20;;
19923;SDS011;10124;53.068;18.224;2023-05-09T14:05:24;4.70;;;2.20;;
19923;SDS011;10124;53.068;18.224;2023-05-09T14:07:53;4.70;;;2.35;;
19923;SDS011;10124;53.068;18.224;2023-05-09T14:10:20;6.18;;;2.42;;
19923;SDS011;10124;53.068;18.224;2023-05-09T14:12:50;11.93;;;2.70;;
19923;SDS011;10124;53.068;18.224;2023-05-09T14:15:19;3.97;;;2.22;;
19923;SDS011;10124;53.068;18.224;2023-05-09T14:17:46;20.92;;;2.95;;
19923;SDS011;10124;53.068;18.224;2023-05-09T14:20:13;16.35;;;2.95;;
19923;SDS011;10124;53.068;18.224;2023-05-09T14:22:46;15.25;;;2.83;;
19923;SDS011;10124;53.068;18.224;2023-05-09T14:25:14;4.70;;;2.28;;
19923;SDS011;10124;53.068;18.224;2023-05-09T14:27:43;7.40;;;2.58;;
19923;SDS011;10124;53.068;18.224;2023-05-09T14:30:11;10.55;;;3.00;;
19923;SDS011;10124;53.068;18.224;2023-05-09T14:32:40;8.70;;;2.17;;
19923;SDS011;10124;53.068;18.224;2023-05-09T14:35:09;7.78;;;2.53;;
19923;SDS011;10124;53.068;18.224;2023-05-09T14:37:39;21.15;;;3.63;;
19923;SDS011;10124;53.068;18.224;2023-05-09T14:40:07;9.65;;;2.58;;
19923;SDS011;10124;53.068;18.224;2023-05-09T14:42:35;21.10;;;3.50;;
19923;SDS011;10124;53.068;18.224;2023-05-09T14:45:04;8.10;;;2.75;;
19923;SDS011;10124;53.068;18.224;2023-05-09T14:47:33;4.85;;;2.53;;
19923;SDS011;10124;53.068;18.224;2023-05-09T14:50:02;11.50;;;3.53;;
19923;SDS011;10124;53.068;18.224;2023-05-09T14:52:33;7.85;;;2.35;;
19923;SDS011;10124;53.068;18.224;2023-05-09T14:55:02;3.05;;;2.30;;
19923;SDS011;10124;53.068;18.224;2023-05-09T14:57:32;8.55;;;2.50;;
19923;SDS011;10124;53.068;18.224;2023-05-09T15:00:00;7.72;;;2.55;;
19923;SDS011;10124;53.068;18.224;2023-05-09T15:02:30;6.70;;;2.90;;
19923;SDS011;10124;53.068;18.224;2023-05-09T15:04:58;20.63;;;3.60;;
19923;SDS011;10124;53.068;18.224;2023-05-09T15:07:27;8.48;;;2.58;;
19923;SDS011;10124;53.068;18.224;2023-05-09T15:09:55;4.47;;;2.38;;
19923;SDS011;10124;53.068;18.224;2023-05-09T15:12:22;7.70;;;2.88;;
19923;SDS011;10124;53.068;18.224;2023-05-09T15:14:50;4.97;;;2.70;;